createdAt,value
2023-01-11T00:00:21.685Z,100968.28
2023-01-11T00:02:59.243Z,100952.23
2023-01-11T00:05:33.407Z,100976.03
2023-01-11T00:08:07.972Z,100966.33
2023-01-11T00:10:41.946Z,100950.09
2023-01-11T00:13:15.900Z,100957.98
2023-01-11T00:15:49.597Z,100985.02
2023-01-11T00:18:22.944Z,100965.38
2023-01-11T00:20:56.490Z,100981.78
2023-01-11T00:23:29.756Z,100982.89
2023-01-11T00:26:05.275Z,100964.48
2023-01-11T00:28:38.900Z,100938.95
2023-01-11T00:31:12.403Z,100983.95
2023-01-11T00:33:45.923Z,100977.84
2023-01-11T00:36:19.397Z,100976.39
2023-01-11T00:38:54.264Z,100975.32
2023-01-11T00:41:45.133Z,100971.38
2023-01-11T00:44:36.172Z,100972.63
2023-01-11T00:47:30.675Z,100982.17
2023-01-11T00:50:04.565Z,100980.40
2023-01-11T00:52:38.011Z,100956.42
2023-01-11T00:55:12.797Z,100976.42
2023-01-11T00:57:46.245Z,100958.05
2023-01-11T01:00:22.066Z,100964.55
2023-01-11T01:02:55.771Z,100943.66
2023-01-11T01:05:29.619Z,100974.30
2023-01-11T01:08:02.939Z,100953.56
2023-01-11T01:10:36.497Z,100946.91
2023-01-11T01:13:29.180Z,100961.66
2023-01-11T01:16:02.555Z,100954.81
2023-01-11T01:18:36.051Z,100971.61
2023-01-11T01:21:09.581Z,100959.70
2023-01-11T01:23:42.890Z,100972.68
2023-01-11T01:26:16.407Z,100949.97
2023-01-11T01:28:50.426Z,100941.48
2023-01-11T01:31:24.177Z,100955.02
2023-01-11T01:33:57.575Z,100965.44
2023-01-11T01:36:30.734Z,100963.13
2023-01-11T01:39:05.385Z,100966.36
2023-01-11T01:41:39.400Z,100985.11
2023-01-11T01:44:48.507Z,100944.73
2023-01-11T01:47:24.476Z,100939.52
2023-01-11T01:50:00.458Z,100948.36
2023-01-11T01:52:36.533Z,100946.19
2023-01-11T01:55:13.641Z,100904.17
2023-01-11T01:57:47.744Z,100946.00
2023-01-11T02:00:22.630Z,100927.42
2023-01-11T02:02:57.054Z,100938.98
2023-01-11T02:05:30.913Z,100939.87
2023-01-11T02:08:07.162Z,100936.28
2023-01-11T02:10:41.671Z,100929.23
2023-01-11T02:13:15.417Z,100947.61
2023-01-11T02:15:51.173Z,100929.58
2023-01-11T02:18:24.804Z,100919.49
2023-01-11T02:21:04.577Z,100943.65
2023-01-11T02:23:55.183Z,100931.23
2023-01-11T02:27:06.427Z,100941.34
2023-01-11T02:29:45.854Z,100950.33
2023-01-11T02:32:25.211Z,100925.83
2023-01-11T02:35:05.881Z,100933.22
2023-01-11T02:37:44.563Z,100922.74
2023-01-11T02:40:20.926Z,100932.47
2023-01-11T02:43:14.766Z,100952.30
2023-01-11T02:45:52.464Z,100911.20
2023-01-11T02:48:30.247Z,100904.35
2023-01-11T02:51:07.932Z,100904.17
2023-01-11T02:53:45.086Z,100903.64
2023-01-11T02:56:23.360Z,100900.40
2023-01-11T02:59:01.133Z,100881.09
2023-01-11T03:01:34.807Z,100886.89
2023-01-11T03:04:12.213Z,100902.75
2023-01-11T03:06:44.628Z,100890.48
2023-01-11T03:09:22.955Z,100890.48
2023-01-11T03:12:22.776Z,100879.84
2023-01-11T03:15:00.856Z,100898.41
2023-01-11T03:17:41.645Z,100900.77
2023-01-11T03:20:18.287Z,100867.61
2023-01-11T03:23:01.237Z,100857.86
2023-01-11T03:25:39.624Z,100882.38
2023-01-11T03:28:17.557Z,100885.45
2023-01-11T03:30:54.156Z,100863.80
2023-01-11T03:33:30.742Z,100894.25
2023-01-11T03:36:07.694Z,100870.13
2023-01-11T03:38:44.312Z,100868.33
2023-01-11T03:41:20.407Z,100883.10
2023-01-11T03:43:56.914Z,100877.34
2023-01-11T03:46:33.243Z,100893.02
2023-01-11T03:49:09.437Z,100899.67
2023-01-11T03:51:45.464Z,100880.92
2023-01-11T03:54:21.489Z,100905.27
2023-01-11T03:56:58.647Z,100899.88
2023-01-11T03:59:32.363Z,100882.00
2023-01-11T04:02:06.444Z,100878.42
2023-01-11T04:04:40.913Z,100863.08
2023-01-11T04:07:15.077Z,100854.09
2023-01-11T04:09:48.986Z,100864.35
2023-01-11T04:12:22.692Z,100847.20
2023-01-11T04:14:56.525Z,100864.35
2023-01-11T04:17:30.121Z,100850.64
2023-01-11T04:20:03.606Z,100884.89
2023-01-11T04:22:36.846Z,100853.34
2023-01-11T04:25:11.631Z,100871.36
2023-01-11T04:27:45.500Z,100841.27
2023-01-11T04:30:19.963Z,100873.70
2023-01-11T04:32:53.546Z,100855.87
2023-01-11T04:35:27.368Z,100856.41
2023-01-11T04:38:01.118Z,100825.78
2023-01-11T04:40:34.407Z,100848.29
2023-01-11T04:43:07.940Z,100853.36
2023-01-11T04:45:41.690Z,100877.69
2023-01-11T04:48:14.907Z,100880.58
2023-01-11T04:50:50.907Z,100854.80
2023-01-11T04:53:24.132Z,100886.70
2023-01-11T04:55:58.970Z,100864.53
2023-01-11T04:58:32.953Z,100877.33
2023-01-11T05:01:12.378Z,100850.28
2023-01-11T05:03:46.532Z,100851.03
2023-01-11T05:06:21.731Z,100833.91
2023-01-11T05:08:55.072Z,100851.03
2023-01-11T05:11:28.466Z,100849.22
2023-01-11T05:14:01.919Z,100832.45
2023-01-11T05:16:35.491Z,100837.15
2023-01-11T05:19:08.944Z,100828.31
2023-01-11T05:21:43.018Z,100842.02
2023-01-11T05:24:18.211Z,100855.70
2023-01-11T05:26:52.774Z,100838.05
2023-01-11T05:29:26.603Z,100820.38
2023-01-11T05:31:59.957Z,100827.95
2023-01-11T05:34:33.525Z,100833.00
2023-01-11T05:37:07.032Z,100817.86
2023-01-11T05:39:40.462Z,100833.00
2023-01-11T05:42:13.749Z,100838.22
2023-01-11T05:45:04.967Z,100817.48
2023-01-11T05:47:38.331Z,100821.28
2023-01-11T05:50:13.883Z,100845.59
2023-01-11T05:52:47.092Z,100825.23
2023-01-11T05:55:20.714Z,100823.05
2023-01-11T05:57:54.338Z,100831.52
2023-01-11T06:00:28.517Z,100838.38
2023-01-11T06:03:03.333Z,100825.03
2023-01-11T06:05:38.771Z,100837.66
2023-01-11T06:08:12.939Z,100836.56
2023-01-11T06:10:48.059Z,100857.31
2023-01-11T06:13:28.040Z,100849.53
2023-01-11T06:16:03.511Z,100827.52
2023-01-11T06:18:38.275Z,100832.54
2023-01-11T06:21:12.836Z,100828.58
2023-01-11T06:23:47.536Z,100832.16
2023-01-11T06:26:23.637Z,100843.52
2023-01-11T06:28:57.114Z,100813.39
2023-01-11T06:31:30.478Z,100819.19
2023-01-11T06:34:04.041Z,100797.50
2023-01-11T06:36:39.380Z,100808.27
2023-01-11T06:39:12.818Z,100787.72
2023-01-11T06:41:46.299Z,100827.59
2023-01-11T06:44:19.986Z,100855.72
2023-01-11T06:46:53.377Z,100807.16
2023-01-11T06:49:26.764Z,100844.42
2023-01-11T06:52:00.173Z,100804.52
2023-01-11T06:54:33.505Z,100822.94
2023-01-11T06:57:06.858Z,100816.77
2023-01-11T06:59:40.585Z,100810.22
2023-01-11T07:02:14.023Z,100810.22
2023-01-11T07:04:47.535Z,100816.36
2023-01-11T07:07:21.305Z,100830.02
2023-01-11T07:09:55.776Z,100799.84
2023-01-11T07:12:29.284Z,100807.80
2023-01-11T07:15:02.721Z,100813.74
2023-01-11T07:17:36.531Z,100813.97
2023-01-11T07:20:12.724Z,100843.53
2023-01-11T07:22:46.266Z,100823.86
2023-01-11T07:25:19.884Z,100815.88
2023-01-11T07:27:58.223Z,100823.83
2023-01-11T07:30:41.892Z,100827.37
2023-01-11T07:33:10.463Z,100831.31
2023-01-11T07:35:43.819Z,100818.27
2023-01-11T07:38:17.175Z,100848.23
2023-01-11T07:40:53.766Z,100855.78
2023-01-11T07:43:27.084Z,100872.74
2023-01-11T07:46:00.643Z,100851.22
2023-01-11T07:48:34.008Z,100820.25
2023-01-11T07:51:07.420Z,100807.88
2023-01-11T07:53:40.823Z,100809.27
2023-01-11T07:56:14.325Z,100802.56
2023-01-11T07:58:47.978Z,100837.48
2023-01-11T08:01:21.554Z,100829.33
2023-01-11T08:03:55.097Z,100810.41
2023-01-11T08:06:28.709Z,100822.70
2023-01-11T08:09:02.182Z,100826.72
2023-01-11T08:11:53.089Z,100832.42
2023-01-11T08:14:41.465Z,100842.34
2023-01-11T08:17:16.337Z,100845.59
2023-01-11T08:19:49.616Z,100792.28
2023-01-11T08:22:23.179Z,100807.73
2023-01-11T08:24:56.452Z,100808.89
2023-01-11T08:27:29.840Z,100811.27
2023-01-11T08:30:03.362Z,100786.61
2023-01-11T08:32:36.574Z,100835.45
2023-01-11T08:35:11.402Z,100825.32
2023-01-11T08:37:45.036Z,100804.91
2023-01-11T08:40:19.797Z,100786.26
2023-01-11T08:42:57.335Z,100752.92
2023-01-11T08:45:30.943Z,100774.17
2023-01-11T08:48:04.471Z,100783.31
2023-01-11T08:50:37.940Z,100779.27
2023-01-11T08:53:12.269Z,100842.50
2023-01-11T08:55:47.221Z,100798.05
2023-01-11T08:58:21.652Z,100785.63
2023-01-11T09:00:55.115Z,100789.81
2023-01-11T09:03:28.812Z,100791.42
2023-01-11T09:06:02.651Z,100762.83
2023-01-11T09:08:36.079Z,100779.67
2023-01-11T09:11:11.693Z,100752.22
2023-01-11T09:13:45.523Z,100757.50
2023-01-11T09:16:19.037Z,100788.09
2023-01-11T09:18:52.769Z,100765.05
2023-01-11T09:21:26.151Z,100773.06
2023-01-11T09:23:59.512Z,100798.20
2023-01-11T09:26:33.058Z,100749.19
2023-01-11T09:29:06.702Z,100738.33
2023-01-11T09:31:39.919Z,100765.84
2023-01-11T09:34:13.950Z,100784.08
2023-01-11T09:36:49.118Z,100781.04
2023-01-11T09:39:24.847Z,100758.09
2023-01-11T09:42:24.508Z,100745.52
2023-01-11T09:45:02.822Z,100739.31
2023-01-11T09:47:41.219Z,100722.05
2023-01-11T09:50:19.908Z,100734.82
2023-01-11T09:52:56.157Z,100728.52
2023-01-11T09:55:35.052Z,100718.86
2023-01-11T09:58:22.734Z,100746.72
2023-01-11T10:01:01.448Z,100679.11
2023-01-11T10:04:03.066Z,100689.81
2023-01-11T10:06:42.485Z,100695.58
2023-01-11T10:18:29.962Z,100734.05
2023-01-11T10:18:34.256Z,100686.75
2023-01-11T10:20:24.399Z,100711.17
2023-01-11T10:23:04.316Z,100675.27
2023-01-11T10:25:42.839Z,100676.48
2023-01-11T10:28:20.849Z,100665.77
2023-01-11T10:31:04.342Z,100673.80
2023-01-11T10:33:48.266Z,100674.95
2023-01-11T10:36:33.509Z,100684.58
2023-01-11T10:39:14.750Z,100678.13
2023-01-11T10:41:53.688Z,100659.75
2023-01-11T10:44:32.579Z,100648.72
2023-01-11T10:47:08.205Z,100675.17
2023-01-11T10:49:46.742Z,100712.31
2023-01-11T10:52:32.885Z,100652.94
2023-01-11T10:55:15.743Z,100635.34
2023-01-11T10:57:59.704Z,100661.03
2023-01-11T11:00:38.216Z,100646.12
2023-01-11T11:03:25.522Z,100645.23
2023-01-11T11:05:58.846Z,100646.47
2023-01-11T11:08:34.807Z,100678.98
2023-01-11T11:11:11.242Z,100622.81
2023-01-11T11:13:49.907Z,100635.09
2023-01-11T11:16:32.575Z,100633.97
2023-01-11T11:19:06.355Z,100647.23
2023-01-11T11:21:42.753Z,100627.87
2023-01-11T11:24:23.119Z,100579.26
2023-01-11T11:27:00.120Z,100615.78
2023-01-11T11:29:33.670Z,100585.66
2023-01-11T11:32:08.757Z,100620.13
2023-01-11T11:34:48.726Z,100597.47
2023-01-11T11:37:28.685Z,100638.03
2023-01-11T11:40:02.195Z,100602.87
2023-01-11T11:42:35.743Z,100629.39
2023-01-11T11:45:18.706Z,100568.22
2023-01-11T11:48:12.163Z,100591.46
2023-01-11T11:50:46.728Z,100571.09
2023-01-11T11:53:30.977Z,100567.03
2023-01-11T11:56:10.233Z,100585.66
2023-01-11T11:58:45.044Z,100604.29
2023-01-11T12:01:31.685Z,100593.73
2023-01-11T12:04:07.393Z,100580.74
2023-01-11T12:06:41.986Z,100606.52
2023-01-11T12:09:20.309Z,100592.30
2023-01-11T12:11:54.086Z,100594.39
2023-01-11T12:14:30.295Z,100595.84
2023-01-11T12:17:10.294Z,100608.09
2023-01-11T12:19:47.578Z,100581.50
2023-01-11T12:22:23.265Z,100589.34
2023-01-11T12:25:08.760Z,100552.27
2023-01-11T12:27:45.580Z,100534.33
2023-01-11T12:30:28.766Z,100573.47
2023-01-11T12:36:16.945Z,100596.69
2023-01-11T12:38:56.923Z,100592.55
2023-01-11T12:41:47.534Z,100580.05
2023-01-11T12:44:31.479Z,100583.80
2023-01-11T12:47:16.203Z,100578.81
2023-01-11T12:53:03.923Z,100577.67
2023-01-11T12:56:01.995Z,100586.52
2023-01-11T12:58:38.062Z,100565.93
2023-01-11T13:01:18.803Z,100556.72
2023-01-11T13:04:12.281Z,100552.47
2023-01-11T13:06:49.367Z,100566.73
2023-01-11T13:09:27.664Z,100599.64
2023-01-11T13:12:04.606Z,100586.67
2023-01-11T13:14:48.330Z,100574.59
2023-01-11T13:17:26.917Z,100560.22
2023-01-11T13:20:23.371Z,100558.75
2023-01-11T13:23:00.138Z,100549.70
2023-01-11T13:25:36.691Z,100546.75
2023-01-11T13:28:20.168Z,100558.19
2023-01-11T13:30:51.568Z,100533.95
2023-01-11T13:33:27.492Z,100548.90
2023-01-11T13:36:09.702Z,100554.42
2023-01-11T13:38:43.587Z,100548.33
2023-01-11T13:41:20.914Z,100553.46
2023-01-11T13:43:58.282Z,100549.13
2023-01-11T13:46:47.629Z,100564.16
2023-01-11T13:49:28.324Z,100597.63
2023-01-11T13:52:04.105Z,100582.13
2023-01-11T13:54:41.736Z,100558.28
2023-01-11T13:57:18.603Z,100544.06
2023-01-11T13:59:55.280Z,100540.00
2023-01-11T14:02:31.428Z,100570.14
2023-01-11T14:05:08.025Z,100530.69
2023-01-11T14:07:47.047Z,100557.80
2023-01-11T14:10:32.685Z,100570.14
2023-01-11T14:13:24.534Z,100558.37
2023-01-11T14:16:01.311Z,100541.23
2023-01-11T14:18:38.487Z,100551.77
2023-01-11T14:21:14.851Z,100512.67
2023-01-11T14:23:51.196Z,100555.99
2023-01-11T14:27:05.603Z,100552.73
2023-01-11T14:30:05.305Z,100535.48
2023-01-11T14:33:03.885Z,100500.05
2023-01-11T14:35:56.454Z,100536.29
2023-01-11T14:39:14.027Z,100573.29
2023-01-11T14:42:30.428Z,100569.45
2023-01-11T14:47:54.387Z,100555.73
2023-01-11T14:50:33.497Z,100553.70
2023-01-11T14:53:09.971Z,100564.47
2023-01-11T14:55:46.786Z,100551.81
2023-01-11T14:58:23.400Z,100536.63
2023-01-11T15:01:15.450Z,100566.89
2023-01-11T15:03:59.770Z,100551.12
2023-01-11T15:06:35.891Z,100546.98
2023-01-11T15:09:11.896Z,100526.88
2023-01-11T15:11:45.293Z,100529.29
2023-01-11T15:17:45.049Z,100516.47
2023-01-11T15:20:20.804Z,100571.52
2023-01-11T15:23:00.072Z,100523.34
2023-01-11T15:25:36.013Z,100535.70
2023-01-11T15:28:23.533Z,100554.22
2023-01-11T15:30:57.190Z,100529.48
2023-01-11T15:33:48.302Z,100540.77
2023-01-11T15:36:25.517Z,100569.23
2023-01-11T15:39:02.595Z,100543.59
2023-01-11T15:41:57.368Z,100551.19
2023-01-11T15:44:39.031Z,100532.01
2023-01-11T15:47:35.053Z,100557.41
2023-01-11T15:50:43.020Z,100581.27
2023-01-11T15:53:52.611Z,100559.86
2023-01-11T15:56:53.658Z,100565.73
2023-01-11T16:00:13.232Z,100532.83
2023-01-11T16:03:21.852Z,100569.50
2023-01-11T16:06:00.378Z,100532.09
2023-01-11T16:08:37.033Z,100550.81
2023-01-11T16:11:16.988Z,100557.84
2023-01-11T16:16:59.658Z,100529.14
2023-01-11T16:19:35.971Z,100524.05
2023-01-11T16:22:13.181Z,100497.81
2023-01-11T16:24:49.078Z,100492.38
2023-01-11T16:27:26.377Z,100502.88
2023-01-11T16:30:00.041Z,100496.77
2023-01-11T16:32:34.945Z,100531.14
2023-01-11T16:35:21.856Z,100544.11
2023-01-11T16:37:58.349Z,100518.48
2023-01-11T16:40:34.890Z,100511.78
2023-01-11T16:43:11.586Z,100497.16
2023-01-11T16:45:47.104Z,100491.71
2023-01-11T16:48:22.025Z,100481.46
2023-01-11T16:51:03.893Z,100459.75
2023-01-11T16:53:40.033Z,100465.39
2023-01-11T16:56:18.636Z,100501.72
2023-01-11T16:59:06.106Z,100522.27
2023-01-11T17:01:52.872Z,100526.45
2023-01-11T17:04:32.453Z,100485.06
2023-01-11T17:07:14.862Z,100493.84
2023-01-11T17:09:48.210Z,100484.63
2023-01-11T17:12:24.001Z,100479.88
2023-01-11T17:15:06.048Z,100476.76
2023-01-11T17:17:40.524Z,100445.06
2023-01-11T17:20:19.051Z,100449.97
2023-01-11T17:22:54.356Z,100432.69
2023-01-11T17:25:43.577Z,100460.89
2023-01-11T17:28:07.943Z,100440.63
2023-01-11T17:30:42.689Z,100451.97
2023-01-11T17:33:27.995Z,100433.66
2023-01-11T17:36:03.175Z,100446.03
2023-01-11T17:38:36.800Z,100447.65
2023-01-11T17:41:13.572Z,100454.84
2023-01-11T17:44:05.990Z,100434.58
2023-01-11T17:46:40.961Z,100460.51
2023-01-11T17:49:22.789Z,100420.30
2023-01-11T17:51:56.055Z,100432.53
2023-01-11T17:54:29.851Z,100436.42
2023-01-11T17:57:04.122Z,100439.87
2023-01-11T17:59:38.823Z,100447.44
2023-01-11T18:02:16.125Z,100448.02
2023-01-11T18:04:51.874Z,100445.34
2023-01-11T18:07:26.102Z,100445.09
2023-01-11T18:10:03.806Z,100430.17
2023-01-11T18:12:37.544Z,100456.98
2023-01-11T18:15:22.765Z,100430.17
2023-01-11T18:17:57.670Z,100445.38
2023-01-11T18:20:39.729Z,100449.86
2023-01-11T18:23:24.826Z,100460.41
2023-01-11T18:26:28.294Z,100421.98
2023-01-11T18:29:01.641Z,100437.19
2023-01-11T18:31:35.248Z,100446.84
2023-01-11T18:34:10.515Z,100453.72
2023-01-11T18:36:43.860Z,100460.00
2023-01-11T18:39:18.555Z,100451.33
2023-01-11T18:42:10.606Z,100439.39
2023-01-11T18:44:46.360Z,100462.20
2023-01-11T18:47:21.967Z,100469.70
2023-01-11T18:49:55.728Z,100455.52
2023-01-11T18:52:29.837Z,100448.97
2023-01-11T18:55:03.252Z,100435.56
2023-01-11T18:57:36.692Z,100449.70
2023-01-11T19:00:13.747Z,100447.50
2023-01-11T19:02:47.299Z,100465.06
2023-01-11T19:05:21.262Z,100451.80
2023-01-11T19:07:54.803Z,100428.25
2023-01-11T19:10:28.961Z,100464.80
2023-01-11T19:13:02.691Z,100478.18
2023-01-11T19:15:38.244Z,100439.39
2023-01-11T19:18:11.857Z,100451.63
2023-01-11T19:20:48.243Z,100440.30
2023-01-11T19:26:01.426Z,100461.77
2023-01-11T19:28:34.723Z,100454.60
2023-01-11T19:31:11.433Z,100437.34
2023-01-11T19:33:44.952Z,100454.02
2023-01-11T19:36:18.351Z,100449.09
2023-01-11T19:38:52.671Z,100447.44
2023-01-11T19:41:26.393Z,100429.88
2023-01-11T19:43:59.908Z,100450.45
2023-01-11T19:46:33.196Z,100426.58
2023-01-11T19:49:07.182Z,100453.72
2023-01-11T19:51:40.702Z,100412.29
2023-01-11T19:54:14.933Z,100437.78
2023-01-11T19:56:49.064Z,100430.77
2023-01-11T19:59:23.411Z,100458.16
2023-01-11T20:01:56.868Z,100428.67
2023-01-11T20:04:30.295Z,100451.59
2023-01-11T20:07:03.939Z,100434.77
2023-01-11T20:09:38.034Z,100428.93
2023-01-11T20:12:13.306Z,100448.47
2023-01-11T20:14:46.995Z,100427.16
2023-01-11T20:17:21.388Z,100444.13
2023-01-11T20:19:55.410Z,100422.39
2023-01-11T20:22:29.594Z,100435.80
2023-01-11T20:25:02.923Z,100430.47
2023-01-11T20:27:36.122Z,100415.27
2023-01-11T20:30:11.684Z,100414.94
2023-01-11T20:32:46.316Z,100403.16
2023-01-11T20:35:19.796Z,100396.41
2023-01-11T20:37:54.004Z,100420.55
2023-01-11T20:40:27.311Z,100385.83
2023-01-11T20:43:00.779Z,100387.19
2023-01-11T20:45:34.902Z,100402.38
2023-01-11T20:48:08.900Z,100405.36
2023-01-11T20:50:42.221Z,100425.66
2023-01-11T20:53:16.115Z,100405.72
2023-01-11T20:55:49.614Z,100410.20
2023-01-11T20:58:23.499Z,100416.44
2023-01-11T21:00:56.995Z,100420.04
2023-01-11T21:03:31.191Z,100404.24
2023-01-11T21:06:06.484Z,100417.32
2023-01-11T21:08:40.193Z,100392.30
2023-01-11T21:11:15.594Z,100392.30
2023-01-11T21:13:48.931Z,100407.80
2023-01-11T21:16:24.611Z,100394.67
2023-01-11T21:18:59.818Z,100421.97
2023-01-11T21:21:37.676Z,100373.66
2023-01-11T21:24:14.527Z,100390.67
2023-01-11T21:26:48.438Z,100404.81
2023-01-11T21:29:21.815Z,100390.36
2023-01-11T21:31:55.252Z,100431.38
2023-01-11T21:34:28.694Z,100374.11
2023-01-11T21:37:02.025Z,100398.27
2023-01-11T21:39:35.828Z,100391.73
2023-01-11T21:42:09.487Z,100401.87
2023-01-11T21:44:43.151Z,100389.34
2023-01-11T21:47:18.095Z,100402.75
2023-01-11T21:49:51.792Z,100379.64
2023-01-11T21:52:25.253Z,100394.39
2023-01-11T21:54:58.668Z,100379.48
2023-01-11T21:57:34.040Z,100403.32
2023-01-11T22:00:08.524Z,100394.83
2023-01-11T22:02:43.656Z,100389.33
2023-01-11T22:05:17.387Z,100394.69
2023-01-11T22:07:50.708Z,100381.10
2023-01-11T22:10:26.801Z,100384.70
2023-01-11T22:13:00.128Z,100389.03
2023-01-11T22:15:33.574Z,100373.50
2023-01-11T22:18:08.153Z,100396.63
2023-01-11T22:20:41.649Z,100390.50
2023-01-11T22:23:15.482Z,100369.48
2023-01-11T22:25:48.870Z,100355.61
2023-01-11T22:28:22.335Z,100375.58
2023-01-11T22:30:55.852Z,100370.52
2023-01-11T22:33:29.305Z,100366.50
2023-01-11T22:36:04.546Z,100349.21
2023-01-11T22:38:37.953Z,100378.59
2023-01-11T22:41:12.147Z,100364.58
2023-01-11T22:43:45.932Z,100373.80
2023-01-11T22:46:21.160Z,100371.45
2023-01-11T22:48:54.980Z,100365.46
2023-01-11T22:51:28.997Z,100359.52
2023-01-11T22:54:02.247Z,100332.65
2023-01-11T22:56:35.809Z,100332.97
2023-01-11T22:59:10.224Z,100335.34
2023-01-11T23:01:44.490Z,100322.66
2023-01-11T23:04:18.237Z,100344.14
2023-01-11T23:06:51.527Z,100323.12
2023-01-11T23:09:25.465Z,100334.14
2023-01-11T23:12:16.813Z,100323.72
2023-01-11T23:14:50.371Z,100324.31
2023-01-11T23:17:23.551Z,100314.45
2023-01-11T23:19:57.305Z,100322.34
2023-01-11T23:22:30.899Z,100309.38
2023-01-11T23:25:04.512Z,100303.58
2023-01-11T23:27:38.079Z,100307.45
2023-01-11T23:30:14.239Z,100309.98
2023-01-11T23:32:47.613Z,100316.85
2023-01-11T23:35:21.346Z,100300.44
2023-01-11T23:37:57.473Z,100284.31
2023-01-11T23:40:32.591Z,100322.95
2023-01-11T23:43:06.268Z,100292.65
2023-01-11T23:45:40.874Z,100289.52
2023-01-11T23:48:14.390Z,100306.98
2023-01-11T23:50:47.776Z,100306.11
2023-01-11T23:53:23.142Z,100300.26
2023-01-11T23:55:58.325Z,100295.36
2023-01-11T23:58:32.632Z,100295.36
